Time;durP1;ratioP1;P1;durP2;ratioP2;P2;SDS_P1;SDS_P2;PMS_P1;PMS_P2;Temp;Humidity;BMP_temperature;BMP_pressure;BME280_temperature;BME280_humidity;BME280_pressure;Samples;Min_cycle;Max_cycle;Signal;HPM_P1;HPM_P2
2021/06/04 00:00:27;;;;;;;5.32;3.50;;;;;;;20.46;42.77;101706.75;146692;570;46020;-66
2021/06/04 00:03:05;;;;;;;5.90;3.40;;;;;;;20.48;42.66;101700.50;146690;564;46016;-66
2021/06/04 00:05:42;;;;;;;8.35;3.40;;;;;;;20.43;42.99;101706.91;146695;579;46021;-67
2021/06/04 00:08:14;;;;;;;7.87;3.70;;;;;;;20.41;43.18;101716.81;146693;627;47018;-67
2021/06/04 00:10:53;;;;;;;6.25;3.80;;;;;;;20.28;43.42;101707.72;146695;611;45028;-66
2021/06/04 00:13:42;;;;;;;7.62;3.50;;;;;;;20.29;43.24;101717.47;146688;636;47019;-69
2021/06/04 00:16:24;;;;;;;6.50;3.72;;;;;;;20.32;43.41;101725.28;146694;601;46010;-68
2021/06/04 00:18:55;;;;;;;6.30;3.72;;;;;;;20.24;43.41;101715.06;146689;632;47018;-68
2021/06/04 00:21:32;;;;;;;5.68;3.33;;;;;;;20.33;43.43;101728.84;146692;622;46021;-68
2021/06/04 00:24:09;;;;;;;5.05;3.65;;;;;;;20.34;43.59;101727.88;146690;564;46012;-67
2021/06/04 00:26:42;;;;;;;5.37;3.55;;;;;;;20.33;43.66;101721.69;146693;578;46011;-67
2021/06/04 00:29:13;;;;;;;7.95;3.40;;;;;;;20.33;43.68;101719.03;146688;572;47012;-67
2021/06/04 00:31:46;;;;;;;7.22;3.58;;;;;;;20.09;44.20;101698.06;146691;618;46010;-66
2021/06/04 00:34:16;;;;;;;;;;;;;;;20.24;44.32;101714.16;146694;979;46017;-65
2021/06/04 00:36:47;;;;;;;4.30;3.10;;;;;;;20.22;44.19;101716.94;146703;584;46008;-65
2021/06/04 00:39:21;;;;;;;6.05;3.45;;;;;;;20.23;44.33;101723.09;146687;610;47901;-69
2021/06/04 00:42:06;;;;;;;6.03;3.35;;;;;;;20.27;44.45;101716.66;146692;593;46021;-66
2021/06/04 00:44:37;;;;;;;4.75;3.53;;;;;;;20.34;44.61;101718.09;146688;565;46913;-68
2021/06/04 00:47:08;;;;;;;7.65;3.70;;;;;;;20.34;45.80;101715.41;146695;581;46020;-66
2021/06/04 00:49:39;;;;;;;8.25;3.83;;;;;;;20.38;46.72;101727.66;146690;581;47011;-67
2021/06/04 00:52:26;;;;;;;7.07;3.92;;;;;;;20.41;47.42;101719.47;146694;608;46020;-67
2021/06/04 00:55:00;;;;;;;7.60;4.18;;;;;;;20.45;48.17;101720.19;146691;597;46010;-66
2021/06/04 00:57:32;;;;;;;8.25;4.20;;;;;;;20.47;49.54;101726.28;146692;583;46008;-66
2021/06/04 01:00:09;;;;;;;6.05;4.37;;;;;;;20.44;51.70;101732.63;146690;598;46016;-65
2021/06/04 01:02:40;;;;;;;8.80;4.50;;;;;;;20.49;50.63;101728.87;146700;574;45049;-66
2021/06/04 01:05:12;;;;;;;6.93;4.72;;;;;;;20.48;51.18;101725.34;146691;564;46010;-66
2021/06/04 01:08:41;;;;;;;7.37;4.50;;;;;;;20.51;50.75;101740.31;146694;579;46020;-67
2021/06/04 01:11:44;;;;;;;7.40;4.32;;;;;;;20.58;50.23;101731.87;146691;638;46010;-67
2021/06/04 01:15:09;;;;;;;6.55;3.70;;;;;;;20.66;49.23;101741.31;146694;594;46020;-67
2021/06/04 01:17:54;;;;;;;6.30;3.40;;;;;;;20.77;48.43;101736.28;146690;579;46016;-67
2021/06/04 01:21:13;;;;;;;5.75;3.70;;;;;;;20.82;47.96;101733.34;146694;610;46020;-67
2021/06/04 01:24:36;;;;;;;4.53;3.55;;;;;;;20.90;48.09;101748.00;146691;570;46010;-66
2021/06/04 01:27:16;;;;;;;6.60;3.65;;;;;;;20.94;47.79;101748.66;146691;652;47006;-67
2021/06/04 01:30:24;;;;;;;6.78;3.97;;;;;;;20.87;48.08;101739.28;146684;592;47020;-67
2021/06/04 01:33:23;;;;;;;9.38;4.72;;;;;;;20.78;51.39;101746.84;146692;570;46021;-66
2021/06/04 01:35:59;;;;;;;8.50;5.05;;;;;;;20.73;51.69;101743.56;146690;596;46010;-65
2021/06/04 01:38:35;;;;;;;11.20;5.40;;;;;;;20.53;52.27;101715.28;146695;602;46008;-66
2021/06/04 01:41:11;;;;;;;10.60;5.15;;;;;;;20.74;51.62;101742.63;146695;619;46010;-66
2021/06/04 01:43:47;;;;;;;9.90;5.15;;;;;;;20.70;52.07;101745.56;146695;659;46020;-67
2021/06/04 01:46:27;;;;;;;8.43;4.57;;;;;;;20.60;52.45;101739.84;146691;574;46010;-66
2021/06/04 01:49:07;;;;;;;9.07;4.82;;;;;;;20.59;52.26;101746.97;146698;570;46021;-66
2021/06/04 01:51:43;;;;;;;5.95;4.50;;;;;;;20.62;52.88;101751.28;146690;672;46016;-65
2021/06/04 01:54:25;;;;;;;7.30;4.45;;;;;;;20.65;52.30;101750.25;146694;660;46020;-65
2021/06/04 01:57:04;;;;;;;7.40;4.43;;;;;;;20.68;52.12;101745.66;146692;590;46010;-66
2021/06/04 01:59:41;;;;;;;8.55;4.47;;;;;;;20.66;52.68;101742.16;146700;564;46008;-65
2021/06/04 02:02:13;;;;;;;5.87;4.18;;;;;;;20.64;52.78;101738.72;146690;616;47010;-65
2021/06/04 02:04:50;;;;;;;9.10;4.25;;;;;;;20.57;53.13;101737.31;146694;587;46020;-67
2021/06/04 02:07:29;;;;;;;7.43;4.87;;;;;;;20.61;52.51;101734.41;146689;589;46016;-66
2021/06/04 02:10:03;;;;;;;11.60;5.10;;;;;;;20.62;52.46;101729.94;146694;626;46008;-66
2021/06/04 02:12:34;;;;;;;6.70;4.78;;;;;;;20.61;51.82;101722.84;146690;601;46017;-66
2021/06/04 02:15:20;;;;;;;8.98;4.90;;;;;;;20.59;51.29;101725.63;146694;665;46020;-66
2021/06/04 02:18:41;;;;;;;7.15;4.70;;;;;;;20.64;51.37;101728.06;146690;564;46017;-67
2021/06/04 02:21:21;;;;;;;8.32;5.07;;;;;;;20.71;51.27;101741.94;146695;657;46020;-66
2021/06/04 02:24:32;;;;;;;8.73;5.00;;;;;;;20.71;53.51;101744.59;146695;642;46016;-67
2021/06/04 02:27:37;;;;;;;7.40;5.20;;;;;;;20.75;51.76;101755.03;146694;569;46010;-69
2021/06/04 02:30:32;;;;;;;8.10;5.00;;;;;;;20.77;51.53;101755.78;146691;653;46016;-69
2021/06/04 02:33:25;;;;;;;9.57;5.30;;;;;;;20.74;52.13;101761.31;146698;617;46020;-69
2021/06/04 02:36:14;;;;;;;8.13;5.37;;;;;;;20.76;51.82;101762.09;146692;622;46016;-67
2021/06/04 02:39:06;;;;;;;10.65;5.72;;;;;;;20.74;52.23;101766.66;146694;657;46020;-67
2021/06/04 02:41:48;;;;;;;9.60;5.47;;;;;;;20.74;53.07;101769.31;146688;575;47019;-66
2021/06/04 02:44:30;;;;;;;9.00;5.65;;;;;;;20.74;52.37;101761.31;146693;569;46020;-64
2021/06/04 02:47:12;;;;;;;8.85;5.80;;;;;;;20.73;52.67;101758.72;146691;640;47018;-64
2021/06/04 02:49:43;;;;;;;10.73;5.78;;;;;;;20.72;52.21;101765.00;146695;563;46020;-64
2021/06/04 02:52:46;;;;;;;9.23;5.70;;;;;;;20.62;52.30;101768.13;146689;579;47010;-64
2021/06/04 02:55:31;;;;;;;8.40;5.70;;;;;;;20.72;52.32;101771.22;146695;564;46009;-64
2021/06/04 02:58:01;;;;;;;8.77;5.62;;;;;;;20.72;52.33;101784.56;146693;597;46014;-64
2021/06/04 03:00:41;;;;;;;8.88;6.00;;;;;;;20.69;52.73;101779.37;146695;564;46020;-64
2021/06/04 03:03:12;;;;;;;10.55;5.60;;;;;;;20.68;52.58;101776.75;146691;634;46017;-67
2021/06/04 03:05:45;;;;;;;10.57;5.78;;;;;;;20.68;52.45;101783.00;146693;577;46020;-66
2021/06/04 03:08:18;;;;;;;8.15;5.35;;;;;;;20.63;53.58;101775.19;146691;600;46014;-66
2021/06/04 03:10:54;;;;;;;8.65;4.68;;;;;;;20.63;52.48;101779.69;146699;595;46020;-66
2021/06/04 03:13:30;;;;;;;5.57;3.87;;;;;;;20.57;52.54;101786.22;146691;657;46016;-66
2021/06/04 03:16:07;;;;;;;6.57;4.15;;;;;;;20.53;52.54;101776.66;146693;573;46020;-65
2021/06/04 03:18:45;;;;;;;6.05;4.30;;;;;;;20.51;52.31;101783.00;146693;646;46014;-67
2021/06/04 03:21:34;;;;;;;7.62;4.35;;;;;;;20.52;52.98;101790.06;146694;594;47020;-65
2021/06/04 03:24:12;;;;;;;7.35;4.70;;;;;;;20.52;52.87;101782.06;146690;569;47901;-65
2021/06/04 03:26:44;;;;;;;7.87;5.15;;;;;;;20.51;52.70;101785.69;146693;564;46008;-66
2021/06/04 03:29:18;;;;;;;7.55;4.75;;;;;;;20.42;52.53;101779.88;146692;630;46010;-67
2021/06/04 03:32:00;;;;;;;9.95;4.60;;;;;;;20.39;52.29;101787.19;146696;590;46020;-66
2021/06/04 03:34:31;;;;;;;7.95;4.65;;;;;;;20.39;52.11;101782.69;146691;566;46014;-67
2021/06/04 03:37:03;;;;;;;7.10;4.55;;;;;;;20.35;51.88;101796.28;146694;570;46008;-66
2021/06/04 03:39:42;;;;;;;5.60;4.45;;;;;;;20.32;51.80;101791.12;146690;662;46016;-66
2021/06/04 03:42:19;;;;;;;9.10;4.65;;;;;;;20.27;52.38;101788.66;146692;625;46021;-67
2021/06/04 03:44:51;;;;;;;11.60;4.45;;;;;;;20.17;52.47;101780.28;146691;608;46010;-66
2021/06/04 03:47:22;;;;;;;10.02;4.75;;;;;;;20.19;52.47;101788.19;146693;647;47008;-67
2021/06/04 03:49:52;;;;;;;8.48;4.30;;;;;;;20.15;52.47;101799.97;146693;654;46014;-67
2021/06/04 03:52:25;;;;;;;7.50;4.20;;;;;;;20.16;52.76;101797.25;146690;603;47008;-67
2021/06/04 03:54:59;;;;;;;8.98;4.60;;;;;;;20.17;52.55;101798.09;146689;652;48020;-67
2021/06/04 03:57:35;;;;;;;8.30;4.82;;;;;;;20.12;52.96;101787.69;146695;664;46020;-67
2021/06/04 04:00:27;;;;;;;6.20;4.40;;;;;;;20.11;53.27;101796.63;146692;630;46010;-67
2021/06/04 04:02:57;;;;;;;7.90;4.85;;;;;;;20.18;52.82;101799.84;146693;620;46009;-67
2021/06/04 04:05:28;;;;;;;12.30;4.70;;;;;;;20.22;52.96;101802.25;146690;598;46016;-67
2021/06/04 04:07:59;;;;;;;7.15;5.20;;;;;;;20.32;52.85;101809.78;146693;619;46020;-67
2021/06/04 04:10:30;;;;;;;8.90;5.32;;;;;;;20.37;53.00;101808.59;146691;615;46014;-67
2021/06/04 04:13:01;;;;;;;7.03;5.10;;;;;;;20.41;52.77;101817.31;146694;595;46016;-67
2021/06/04 04:15:32;;;;;;;7.57;5.18;;;;;;;20.42;53.00;101822.56;146691;565;46016;-67
2021/06/04 04:18:03;;;;;;;10.95;4.87;;;;;;;20.48;53.20;101818.72;146694;585;46020;-67
2021/06/04 04:20:45;;;;;;;8.13;4.57;;;;;;;20.55;52.55;101828.09;146691;608;46014;-67
2021/06/04 04:23:24;;;;;;;7.62;4.90;;;;;;;20.64;52.77;101818.78;146693;570;46995;-66
2021/06/04 04:25:56;;;;;;;8.25;4.80;;;;;;;20.71;51.90;101817.53;146691;651;46011;-67
2021/06/04 04:28:32;;;;;;;6.57;4.80;;;;;;;20.74;51.69;101820.03;146694;648;46008;-67
2021/06/04 04:31:06;;;;;;;6.93;4.40;;;;;;;20.79;51.76;101828.66;146690;574;46010;-67
2021/06/04 04:33:38;;;;;;;10.35;5.03;;;;;;;20.82;51.46;101822.28;146694;569;45026;-66
2021/06/04 04:36:10;;;;;;;13.70;5.15;;;;;;;20.87;51.46;101824.69;146692;571;46016;-68
2021/06/04 04:38:41;;;;;;;7.45;4.75;;;;;;;20.92;51.17;101828.00;146692;573;48008;-69
2021/06/04 04:41:13;;;;;;;10.80;5.05;;;;;;;20.98;51.14;101827.63;146692;597;46014;-71
2021/06/04 04:43:50;;;;;;;11.75;4.90;;;;;;;20.99;51.24;101818.69;146695;591;46008;-67
2021/06/04 04:46:24;;;;;;;13.02;6.32;;;;;;;21.09;50.92;101830.59;146691;589;46901;-67
2021/06/04 04:48:57;;;;;;;13.30;7.10;;;;;;;21.10;51.02;101832.34;146693;675;47010;-67
2021/06/04 04:51:30;;;;;;;12.27;7.12;;;;;;;21.06;50.87;101841.44;146690;583;46010;-66
2021/06/04 04:54:01;;;;;;;11.07;6.40;;;;;;;21.07;51.15;101836.97;146694;603;46021;-65
2021/06/04 04:56:31;;;;;;;8.80;6.37;;;;;;;21.09;51.27;101833.28;146690;642;46016;-65
2021/06/04 04:59:04;;;;;;;10.63;6.60;;;;;;;21.20;51.12;101839.81;146693;570;46008;-66
2021/06/04 05:01:35;;;;;;;11.00;5.90;;;;;;;21.22;50.85;101833.44;146691;570;46017;-65
2021/06/04 05:04:06;;;;;;;8.30;5.30;;;;;;;21.38;50.85;101838.81;146692;580;46907;-65
2021/06/04 05:06:37;;;;;;;7.30;5.07;;;;;;;21.41;50.64;101843.97;146690;590;46010;-69
2021/06/04 05:09:09;;;;;;;7.75;5.50;;;;;;;21.49;50.72;101846.22;146692;602;47009;-68
2021/06/04 05:11:39;;;;;;;12.30;5.90;;;;;;;21.58;50.36;101845.75;146692;570;46016;-66
2021/06/04 05:14:10;;;;;;;9.88;6.15;;;;;;;21.69;50.07;101841.59;146694;580;46008;-66
2021/06/04 05:16:41;;;;;;;11.70;5.20;;;;;;;21.79;49.91;101850.81;146691;566;46017;-66
2021/06/04 05:19:12;;;;;;;11.93;5.35;;;;;;;21.87;49.81;101851.22;146694;570;46020;-66
2021/06/04 05:21:42;;;;;;;10.68;5.28;;;;;;;21.97;49.32;101859.56;146691;564;46029;-68
2021/06/04 05:24:13;;;;;;;10.35;6.03;;;;;;;22.05;49.14;101857.31;146691;608;46021;-68
2021/06/04 05:26:44;;;;;;;8.60;5.78;;;;;;;22.03;49.04;101859.19;146689;585;46016;-68
2021/06/04 05:29:15;;;;;;;9.38;5.45;;;;;;;22.03;49.29;101858.34;146692;586;46008;-68
2021/06/04 05:31:45;;;;;;;12.65;5.25;;;;;;;22.09;48.98;101863.31;146688;604;46011;-68
2021/06/04 05:34:16;;;;;;;9.80;4.62;;;;;;;22.09;48.77;101858.84;146693;569;46020;-68
2021/06/04 05:36:46;;;;;;;6.78;4.37;;;;;;;22.15;48.58;101861.16;146689;666;46010;-67
2021/06/04 05:39:22;;;;;;;6.87;4.07;;;;;;;22.21;48.44;101867.09;146693;564;46008;-66
2021/06/04 05:41:59;;;;;;;6.97;3.90;;;;;;;22.25;47.64;101864.16;146688;623;46016;-66
2021/06/04 05:44:33;;;;;;;9.23;4.12;;;;;;;22.26;47.50;101854.31;146692;563;46008;-66
2021/06/04 05:47:10;;;;;;;6.95;3.70;;;;;;;22.37;47.75;101867.94;146687;618;47010;-64
2021/06/04 05:49:41;;;;;;;8.85;4.10;;;;;;;22.35;47.50;101861.84;146691;566;46906;-66
2021/06/04 05:52:15;;;;;;;5.93;3.87;;;;;;;22.47;47.11;101869.12;146687;565;47010;-66
2021/06/04 05:54:48;;;;;;;4.37;3.22;;;;;;;22.66;47.15;101878.69;146693;569;46008;-66
2021/06/04 05:57:19;;;;;;;4.95;3.15;;;;;;;22.77;45.98;101872.69;146687;566;46016;-66
2021/06/04 05:59:50;;;;;;;4.68;3.12;;;;;;;22.94;45.22;101877.03;146693;652;46020;-66
2021/06/04 06:02:20;;;;;;;6.30;3.15;;;;;;;23.03;44.96;101879.09;146690;583;46017;-66
2021/06/04 06:04:51;;;;;;;8.20;4.43;;;;;;;23.10;45.12;101880.47;146689;573;47010;-67
2021/06/04 06:07:21;;;;;;;8.57;3.50;;;;;;;23.13;44.91;101877.63;146688;600;46016;-66
2021/06/04 06:09:52;;;;;;;5.22;3.10;;;;;;;23.12;44.66;101891.06;146691;612;46010;-66
2021/06/04 06:12:23;;;;;;;5.82;3.42;;;;;;;23.12;44.90;101886.59;146689;623;46900;-67
2021/06/04 06:14:54;;;;;;;5.30;3.53;;;;;;;23.20;44.48;101887.97;146691;619;46020;-66
2021/06/04 06:17:24;;;;;;;6.15;3.60;;;;;;;23.23;44.24;101885.06;146687;620;47019;-67
2021/06/04 06:19:55;;;;;;;6.40;3.50;;;;;;;23.28;44.51;101881.16;146691;565;46008;-67
2021/06/04 06:22:26;;;;;;;7.78;3.55;;;;;;;23.38;44.66;101883.25;146687;644;47010;-66
2021/06/04 06:24:58;;;;;;;6.43;3.42;;;;;;;23.53;44.73;101881.41;146692;604;46021;-67
2021/06/04 06:27:28;;;;;;;6.47;3.50;;;;;;;23.69;44.17;101879.44;146687;618;46010;-66
2021/06/04 06:29:59;;;;;;;4.85;3.42;;;;;;;23.80;44.31;101873.38;146691;634;46008;-67
2021/06/04 06:32:29;;;;;;;4.85;3.15;;;;;;;23.91;43.96;101878.91;146687;599;46011;-67
2021/06/04 06:35:01;;;;;;;3.95;3.40;;;;;;;24.04;43.96;101878.94;146690;563;46020;-66
2021/06/04 06:37:31;;;;;;;7.62;3.40;;;;;;;24.16;43.25;101882.62;146690;583;46015;-67
2021/06/04 06:40:03;;;;;;;4.37;3.20;;;;;;;24.29;43.41;101882.66;146692;566;46020;-66
2021/06/04 06:42:34;;;;;;;5.20;3.72;;;;;;;24.42;43.13;101883.53;146689;595;46020;-66
2021/06/04 06:45:09;;;;;;;6.05;3.50;;;;;;;24.42;42.63;101864.75;146693;594;46008;-67
2021/06/04 06:47:40;;;;;;;5.30;3.35;;;;;;;24.59;42.33;101884.22;146688;577;46019;-66
2021/06/04 06:50:12;;;;;;;5.97;3.33;;;;;;;24.66;42.04;101885.56;146692;602;46020;-67
2021/06/04 06:52:43;;;;;;;8.90;3.58;;;;;;;24.74;42.14;101876.94;146687;639;47018;-66
2021/06/04 06:55:34;;;;;;;6.72;3.30;;;;;;;24.80;41.67;101877.37;146693;683;46008;-66
2021/06/04 06:58:06;;;;;;;6.25;3.53;;;;;;;24.77;41.72;101868.69;146689;641;47901;-66
2021/06/04 07:00:42;;;;;;;4.43;3.30;;;;;;;24.81;41.64;101878.25;146692;558;46020;-67
2021/06/04 07:03:16;;;;;;;4.72;3.37;;;;;;;24.80;41.20;101876.53;146686;563;47010;-67
2021/06/04 07:05:47;;;;;;;3.78;3.20;;;;;;;24.83;41.19;101866.41;146691;581;46020;-66
2021/06/04 07:08:17;;;;;;;5.57;3.28;;;;;;;25.04;40.73;101865.00;146688;564;46017;-67
2021/06/04 07:10:48;;;;;;;4.30;3.10;;;;;;;25.09;40.70;101861.03;146693;611;46020;-66
2021/06/04 07:13:26;;;;;;;4.95;3.40;;;;;;;25.21;41.06;101858.44;146689;575;46016;-68
2021/06/04 07:16:07;;;;;;;6.07;3.05;;;;;;;25.28;40.36;101852.50;146691;805;46021;-67
2021/06/04 07:18:40;;;;;;;6.82;3.30;;;;;;;25.47;40.32;101849.34;146690;566;46900;-67
2021/06/04 07:21:14;;;;;;;5.03;3.60;;;;;;;25.55;39.82;101855.97;146691;624;46020;-67
2021/06/04 07:23:44;;;;;;;6.30;3.30;;;;;;;25.61;39.72;101855.53;146686;582;48018;-67
2021/06/04 07:26:16;;;;;;;5.37;3.17;;;;;;;25.70;39.96;101844.09;146692;622;46020;-66
2021/06/04 07:28:48;;;;;;;6.22;3.40;;;;;;;25.73;39.57;101860.00;146689;599;46020;-67
2021/06/04 07:31:22;;;;;;;6.50;3.30;;;;;;;25.79;39.25;101856.87;146690;581;46020;-67
2021/06/04 07:33:54;;;;;;;;;;;;;;;25.90;38.43;101858.72;146694;961;46016;-67
2021/06/04 07:36:34;;;;;;;5.60;3.25;;;;;;;26.02;39.45;101857.84;146700;630;46020;-67
2021/06/04 07:39:10;;;;;;;5.00;3.30;;;;;;;26.08;39.49;101859.22;146689;662;46017;-68
2021/06/04 07:41:42;;;;;;;5.43;3.08;;;;;;;26.18;38.49;101851.31;146692;586;46027;-68
2021/06/04 07:44:14;;;;;;;4.28;2.87;;;;;;;26.18;37.81;101854.84;146691;640;46014;-67
2021/06/04 07:46:47;;;;;;;4.03;3.08;;;;;;;26.18;38.35;101860.22;146691;771;46010;-67
2021/06/04 07:49:17;;;;;;;5.07;2.87;;;;;;;26.27;37.77;101860.50;146688;598;46012;-67
2021/06/04 07:51:55;;;;;;;6.80;3.30;;;;;;;26.34;37.28;101861.72;146694;620;46020;-67
2021/06/04 07:54:29;;;;;;;5.50;3.22;;;;;;;26.50;37.74;101862.28;146689;600;46013;-67
2021/06/04 07:57:01;;;;;;;3.65;2.78;;;;;;;26.65;37.20;101856.66;146690;604;46020;-68
2021/06/04 07:59:31;;;;;;;5.15;3.30;;;;;;;26.68;36.84;101859.97;146689;813;46016;-67
2021/06/04 08:02:03;;;;;;;7.87;3.50;;;;;;;26.90;36.34;101854.75;146692;862;46010;-67
2021/06/04 08:04:34;;;;;;;5.05;3.40;;;;;;;26.77;36.38;101844.94;146690;611;46016;-67
2021/06/04 08:07:04;;;;;;;6.47;3.28;;;;;;;26.61;36.16;101849.81;146692;608;46011;-67
2021/06/04 08:09:35;;;;;;;5.55;3.20;;;;;;;26.69;36.13;101844.66;146689;570;46017;-67
2021/06/04 08:12:06;;;;;;;6.32;3.40;;;;;;;26.62;35.58;101851.53;146692;656;46020;-67
2021/06/04 08:14:37;;;;;;;6.35;3.28;;;;;;;26.62;35.43;101856.91;146688;743;46016;-66
2021/06/04 08:17:07;;;;;;;7.37;3.45;;;;;;;26.54;35.39;101844.03;146691;661;46021;-67
2021/06/04 08:19:39;;;;;;;5.55;2.95;;;;;;;26.46;35.20;101849.16;146689;625;46014;-67
2021/06/04 08:22:12;;;;;;;5.65;3.40;;;;;;;26.43;35.44;101846.72;146690;580;46906;-67
2021/06/04 08:24:43;;;;;;;6.32;3.15;;;;;;;26.45;35.10;101855.53;146690;571;47012;-67
2021/06/04 08:27:15;;;;;;;4.68;3.30;;;;;;;26.34;34.86;101845.56;146693;600;46020;-67
2021/06/04 08:29:48;;;;;;;3.78;3.00;;;;;;;26.35;35.68;101850.87;146689;613;46025;-67
2021/06/04 08:32:19;;;;;;;5.55;3.00;;;;;;;26.18;36.84;101854.84;146691;565;46021;-67
2021/06/04 08:34:49;;;;;;;4.68;3.12;;;;;;;26.09;37.57;101855.53;146689;848;46903;-66
2021/06/04 08:37:20;;;;;;;3.60;2.85;;;;;;;26.11;37.23;101860.84;146691;611;46010;-67
2021/06/04 08:39:50;;;;;;;3.80;2.95;;;;;;;26.04;37.74;101852.38;146690;565;46014;-67
2021/06/04 08:43:18;;;;;;;6.40;3.40;;;;;;;25.87;38.37;101866.19;146692;585;46020;-68
2021/06/04 08:46:22;;;;;;;4.55;3.10;;;;;;;25.76;38.28;101857.09;146690;628;46012;-67
2021/06/04 08:49:35;;;;;;;5.07;3.30;;;;;;;25.75;38.20;101871.53;146689;679;46020;-67
2021/06/04 08:52:24;;;;;;;4.68;3.10;;;;;;;25.75;38.44;101862.59;146690;570;46015;-67
2021/06/04 08:55:44;;;;;;;4.95;3.05;;;;;;;25.78;38.20;101854.28;146691;820;47012;-67
2021/06/04 08:59:13;;;;;;;5.15;3.15;;;;;;;25.77;37.69;101866.03;146688;877;46016;-67
2021/06/04 09:02:09;;;;;;;4.40;3.03;;;;;;;25.76;38.64;101867.84;146692;600;46010;-67
2021/06/04 09:04:51;;;;;;;4.80;3.25;;;;;;;25.96;38.79;101876.28;146688;609;46904;-67
2021/06/04 09:07:35;;;;;;;6.20;3.50;;;;;;;26.05;38.95;101875.59;146695;673;46011;-67
2021/06/04 09:10:53;;;;;;;5.22;3.30;;;;;;;26.02;38.96;101870.44;146692;590;46016;-69
2021/06/04 09:13:37;;;;;;;5.40;3.17;;;;;;;26.04;39.62;101873.00;146691;593;47010;-68
2021/06/04 09:17:17;;;;;;;5.28;3.30;;;;;;;25.95;39.40;101872.69;146691;772;46014;-68
2021/06/04 09:20:26;;;;;;;8.77;3.60;;;;;;;25.94;39.49;101880.91;146689;565;46020;-69
2021/06/04 09:23:02;;;;;;;5.93;3.70;;;;;;;25.92;39.44;101883.69;146689;748;46016;-69
2021/06/04 09:25:34;;;;;;;6.05;3.40;;;;;;;25.94;39.24;101872.81;146691;775;47010;-67
2021/06/04 09:28:34;;;;;;;8.15;3.90;;;;;;;25.58;40.69;101864.69;146691;664;46014;-67
2021/06/04 09:31:42;;;;;;;5.32;3.40;;;;;;;25.71;39.96;101866.47;146697;583;46010;-67
2021/06/04 09:34:34;;;;;;;6.60;3.65;;;;;;;25.80;40.22;101863.94;146697;601;46012;-67
2021/06/04 09:37:33;;;;;;;4.20;3.10;;;;;;;25.78;40.48;101855.16;146696;572;46019;-67
2021/06/04 09:40:27;;;;;;;4.32;3.33;;;;;;;25.76;40.58;101854.41;146696;584;46012;-66
2021/06/04 09:43:21;;;;;;;4.57;3.35;;;;;;;25.99;40.29;101866.12;146699;630;46010;-67
2021/06/04 09:45:57;;;;;;;6.43;3.50;;;;;;;25.97;40.77;101857.31;146695;855;46013;-66
2021/06/04 09:48:57;;;;;;;4.90;3.65;;;;;;;26.24;39.90;101858.91;146697;606;46020;-67
2021/06/04 09:51:38;;;;;;;5.57;3.40;;;;;;;26.26;39.60;101848.88;146697;587;46012;-68
2021/06/04 09:54:29;;;;;;;3.97;3.30;;;;;;;26.34;39.33;101853.66;146697;622;46020;-67
2021/06/04 09:57:21;;;;;;;5.37;3.53;;;;;;;26.14;39.84;101860.59;146694;722;47903;-66
2021/06/04 09:59:51;;;;;;;4.93;3.30;;;;;;;26.08;40.09;101853.84;146698;645;46011;-67
2021/06/04 10:02:36;;;;;;;5.60;3.30;;;;;;;25.97;39.82;101856.44;146695;574;46012;-66
2021/06/04 10:05:25;;;;;;;5.85;3.70;;;;;;;25.91;39.66;101849.69;146697;816;46010;-67
2021/06/04 10:08:38;;;;;;;5.93;3.35;;;;;;;25.80;40.39;101850.50;146697;611;46014;-67
2021/06/04 10:11:31;;;;;;;4.55;3.12;;;;;;;25.98;40.27;101853.63;146697;585;46010;-66
2021/06/04 10:14:45;;;;;;;4.45;3.42;;;;;;;26.15;39.73;101847.00;146694;640;46012;-67
2021/06/04 10:20:48;;;;;;;5.15;3.55;;;;;;;26.26;40.41;101837.25;146696;634;46014;-69
2021/06/04 10:23:44;;;;;;;;;;;;;;;26.34;39.25;101834.81;146700;981;46021;-67
2021/06/04 10:26:53;;;;;;;5.93;3.20;;;;;;;26.44;39.91;101833.13;146703;624;46014;-67
2021/06/04 10:29:24;;;;;;;6.12;3.42;;;;;;;26.51;39.52;101834.34;146694;572;46008;-67
2021/06/04 10:32:21;;;;;;;6.07;3.25;;;;;;;26.42;40.08;101834.22;146691;621;46016;-67
2021/06/04 10:35:42;;;;;;;5.87;3.40;;;;;;;26.31;40.05;101835.06;146692;643;46022;-68
2021/06/04 10:38:30;;;;;;;5.10;3.47;;;;;;;26.27;39.87;101837.16;146688;645;46016;-68
2021/06/04 10:41:13;;;;;;;4.10;3.50;;;;;;;26.10;40.21;101819.59;146695;705;46008;-66
2021/06/04 10:44:52;;;;;;;5.68;3.40;;;;;;;26.02;40.61;101822.00;146691;610;46015;-67
2021/06/04 10:48:12;;;;;;;4.20;3.03;;;;;;;26.15;40.54;101825.47;146694;594;45020;-67
2021/06/04 10:51:43;;;;;;;4.40;3.20;;;;;;;26.32;39.93;101813.41;146690;581;47010;-67
2021/06/04 10:55:17;;;;;;;5.43;3.10;;;;;;;26.45;39.24;101804.38;146694;594;46008;-67
2021/06/04 10:58:39;;;;;;;6.45;3.40;;;;;;;26.36;40.01;101795.19;146692;563;46010;-67
2021/06/04 11:01:15;;;;;;;5.22;3.33;;;;;;;26.40;40.31;101799.34;146692;592;46020;-68
2021/06/04 11:04:06;;;;;;;4.87;3.10;;;;;;;26.47;39.84;101789.81;146687;622;47010;-67
2021/06/04 11:07:11;;;;;;;6.10;3.28;;;;;;;26.55;40.65;101791.91;146690;580;47009;-67
2021/06/04 11:10:24;;;;;;;4.62;3.50;;;;;;;26.54;40.63;101778.56;146687;576;47010;-67
2021/06/04 11:14:05;;;;;;;4.60;3.40;;;;;;;26.34;40.12;101792.63;146695;570;46008;-67
2021/06/04 11:17:46;;;;;;;4.82;3.20;;;;;;;26.39;40.83;101786.88;146690;628;46010;-67
2021/06/04 11:20:31;;;;;;;3.80;3.22;;;;;;;26.20;41.73;101781.22;146691;628;46010;-67
2021/06/04 11:23:44;;;;;;;4.35;3.20;;;;;;;26.09;41.80;101785.56;146686;823;47019;-67
2021/06/04 11:26:24;;;;;;;5.65;3.33;;;;;;;26.21;41.41;101782.94;146695;794;45020;-67
2021/06/04 11:29:23;;;;;;;4.82;3.47;;;;;;;26.28;40.28;101776.09;146688;569;46017;-67
2021/06/04 11:32:23;;;;;;;5.95;3.25;;;;;;;26.43;40.07;101776.72;146691;724;46020;-67
2021/06/04 11:35:18;;;;;;;4.82;3.37;;;;;;;26.42;40.39;101773.19;146689;673;46010;-67
2021/06/04 11:38:21;;;;;;;5.15;3.37;;;;;;;26.49;42.03;101769.03;146692;618;46008;-67
2021/06/04 11:41:05;;;;;;;5.10;3.37;;;;;;;26.56;41.63;101765.81;146687;632;47018;-66
2021/06/04 11:43:40;;;;;;;5.78;3.30;;;;;;;26.59;41.85;101755.66;146692;590;46010;-67
2021/06/04 11:46:30;;;;;;;4.47;3.10;;;;;;;26.43;42.34;101761.41;146691;586;46025;-68
2021/06/04 11:49:17;;;;;;;3.78;3.20;;;;;;;26.41;42.84;101754.44;146690;631;46020;-67
2021/06/04 11:51:52;;;;;;;6.00;3.10;;;;;;;26.27;40.09;101742.94;146690;570;47010;-67
2021/06/04 11:54:40;;;;;;;6.47;3.25;;;;;;;26.24;41.78;101758.47;146697;586;46020;-66
2021/06/04 11:58:37;;;;;;;4.78;3.10;;;;;;;26.30;40.71;101749.88;146689;797;47010;-68
2021/06/04 12:01:45;;;;;;;4.10;3.08;;;;;;;26.45;40.46;101740.62;146691;612;46021;-68
2021/06/04 12:04:21;;;;;;;4.07;2.87;;;;;;;26.66;40.77;101734.50;146694;855;46010;-66
2021/06/04 12:07:03;;;;;;;6.30;3.30;;;;;;;26.82;40.33;101740.38;146694;564;46021;-68
2021/06/04 12:09:44;;;;;;;6.05;2.95;;;;;;;26.66;40.55;101732.66;146694;694;46018;-67
2021/06/04 12:12:51;;;;;;;4.70;2.62;;;;;;;26.54;41.09;101735.47;146693;595;46020;-67
2021/06/04 12:15:42;;;;;;;4.93;2.85;;;;;;;26.34;41.06;101716.38;146690;618;46021;-66
2021/06/04 12:18:51;;;;;;;4.50;2.90;;;;;;;26.25;40.13;101717.13;146690;614;46008;-66
2021/06/04 12:22:09;;;;;;;4.55;2.60;;;;;;;26.20;40.58;101719.31;146688;711;46017;-65
2021/06/04 12:24:52;;;;;;;5.95;2.85;;;;;;;26.20;39.31;101713.94;146693;623;46022;-66
2021/06/04 12:28:05;;;;;;;5.35;2.95;;;;;;;26.15;39.60;101693.63;146693;569;46018;-66
2021/06/04 12:31:11;;;;;;;7.82;2.95;;;;;;;26.34;39.08;101711.87;146694;607;46008;-66
2021/06/04 12:33:50;;;;;;;6.03;3.00;;;;;;;26.25;38.39;101715.28;146690;764;46016;-66
2021/06/04 12:36:53;;;;;;;5.87;3.20;;;;;;;26.21;38.73;101704.87;146694;779;46021;-67
2021/06/04 12:40:26;;;;;;;4.57;2.67;;;;;;;26.25;37.59;101698.28;146689;613;46016;-67